createdAt,value
2024-03-13T00:00:11.469Z,8.97
2024-03-13T00:02:47.059Z,9.63
2024-03-13T00:05:14.971Z,8.10
2024-03-13T00:07:42.871Z,7.90
2024-03-13T00:10:12.262Z,8.80
2024-03-13T00:12:40.182Z,8.93
2024-03-13T00:15:10.120Z,5.27
2024-03-13T00:17:38.589Z,6.23
2024-03-13T00:20:12.524Z,6.23
2024-03-13T00:22:41.743Z,7.43
2024-03-13T00:25:13.498Z,9.37
2024-03-13T00:27:45.447Z,10.23
2024-03-13T00:30:13.942Z,7.90
2024-03-13T00:32:42.406Z,6.27
2024-03-13T00:35:10.731Z,5.03
2024-03-13T00:37:38.800Z,8.60
2024-03-13T00:40:07.611Z,6.73
2024-03-13T00:42:35.519Z,5.53
2024-03-13T00:45:05.564Z,3.93
2024-03-13T00:47:33.442Z,6.83
2024-03-13T00:50:00.612Z,5.23
2024-03-13T00:52:29.929Z,6.43
2024-03-13T00:54:57.885Z,4.40
2024-03-13T00:57:26.082Z,3.87
2024-03-13T00:59:54.824Z,5.00
2024-03-13T01:02:23.056Z,4.67
2024-03-13T01:04:51.300Z,3.67
2024-03-13T01:07:19.174Z,4.07
2024-03-13T01:09:47.150Z,4.57
2024-03-13T01:12:15.482Z,3.37
2024-03-13T01:14:44.412Z,3.63
2024-03-13T01:17:12.333Z,6.83
2024-03-13T01:19:42.000Z,5.07
2024-03-13T01:22:14.091Z,5.57
2024-03-13T01:24:44.193Z,2.73
2024-03-13T01:27:12.727Z,2.13
2024-03-13T01:29:43.221Z,3.83
2024-03-13T01:32:13.108Z,2.20
2024-03-13T01:34:42.932Z,2.53
2024-03-13T01:37:28.564Z,3.10
2024-03-13T01:39:56.632Z,4.03
2024-03-13T01:42:41.723Z,3.03
2024-03-13T01:45:24.979Z,2.03
2024-03-13T01:48:12.066Z,3.40
2024-03-13T01:51:01.128Z,3.20
2024-03-13T01:53:46.647Z,1.97
2024-03-13T01:56:24.295Z,2.13
2024-03-13T01:59:04.257Z,1.87
2024-03-13T02:01:50.588Z,1.37
2024-03-13T02:04:18.939Z,1.87
2024-03-13T02:06:49.293Z,1.60
2024-03-13T02:09:19.412Z,1.23
2024-03-13T02:11:48.542Z,2.57
2024-03-13T02:14:17.700Z,1.67
2024-03-13T02:16:53.315Z,1.30
2024-03-13T02:19:27.186Z,4.67
2024-03-13T02:22:01.590Z,1.73
2024-03-13T02:24:30.030Z,1.70
2024-03-13T02:26:58.773Z,1.70
2024-03-13T02:29:26.888Z,1.37
2024-03-13T02:31:54.877Z,0.93
2024-03-13T02:34:22.946Z,3.33
2024-03-13T02:36:52.568Z,1.50
2024-03-13T02:39:20.688Z,1.67
2024-03-13T02:41:48.649Z,1.80
2024-03-13T02:44:16.734Z,1.73
2024-03-13T02:46:45.577Z,2.10
2024-03-13T02:49:16.299Z,2.40
2024-03-13T02:51:44.398Z,1.60
2024-03-13T02:54:12.427Z,1.03
2024-03-13T02:56:40.705Z,1.77
2024-03-13T02:59:09.961Z,1.90
2024-03-13T03:01:38.169Z,1.20
2024-03-13T03:04:06.218Z,2.40
2024-03-13T03:06:34.194Z,1.20
2024-03-13T03:09:02.512Z,1.40
2024-03-13T03:11:30.552Z,2.13
2024-03-13T03:13:58.523Z,1.27
2024-03-13T03:16:26.900Z,2.07
2024-03-13T03:18:55.161Z,1.13
2024-03-13T03:21:24.194Z,1.50
2024-03-13T03:23:52.536Z,1.20
2024-03-13T03:26:20.741Z,1.20
2024-03-13T03:28:49.047Z,1.33
2024-03-13T03:31:17.596Z,1.67
2024-03-13T03:33:45.759Z,1.10
2024-03-13T03:36:15.000Z,4.97
2024-03-13T03:38:43.254Z,1.87
2024-03-13T03:41:11.219Z,1.47
2024-03-13T03:43:40.107Z,1.27
2024-03-13T03:46:08.735Z,1.43
2024-03-13T03:48:36.923Z,0.90
2024-03-13T03:51:10.779Z,3.90
2024-03-13T03:53:39.229Z,3.03
2024-03-13T03:56:08.466Z,1.73
2024-03-13T03:58:36.893Z,3.07
2024-03-13T04:01:05.397Z,0.83
2024-03-13T04:03:33.882Z,1.87
2024-03-13T04:06:02.421Z,1.63
2024-03-13T04:08:30.459Z,0.80
2024-03-13T04:10:58.444Z,3.03
2024-03-13T04:13:26.727Z,1.73
2024-03-13T04:15:54.842Z,1.27
2024-03-13T04:18:22.817Z,1.40
2024-03-13T04:20:51.785Z,3.03
2024-03-13T04:23:21.933Z,0.80
2024-03-13T04:25:50.727Z,2.10
2024-03-13T04:28:18.743Z,1.23
2024-03-13T04:30:47.438Z,1.60
2024-03-13T04:33:18.035Z,1.57
2024-03-13T04:35:46.258Z,0.83
2024-03-13T04:38:14.569Z,1.47
2024-03-13T04:40:44.386Z,1.53
2024-03-13T04:43:12.425Z,1.13
2024-03-13T04:45:40.434Z,1.87
2024-03-13T04:48:08.797Z,1.20
2024-03-13T04:50:37.832Z,2.20
2024-03-13T04:53:05.807Z,0.53
2024-03-13T04:55:34.045Z,2.70
2024-03-13T04:58:02.213Z,1.87
2024-03-13T05:00:30.247Z,1.20
2024-03-13T05:02:58.154Z,3.03
2024-03-13T05:05:26.148Z,2.27
2024-03-13T05:07:56.160Z,1.13
2024-03-13T05:10:25.240Z,1.80
2024-03-13T05:12:53.369Z,1.43
2024-03-13T05:15:21.373Z,1.77
2024-03-13T05:17:50.784Z,1.53
2024-03-13T05:20:19.452Z,1.80
2024-03-13T05:22:47.780Z,5.47
2024-03-13T05:25:19.296Z,1.73
2024-03-13T05:27:48.407Z,2.43
2024-03-13T05:30:16.528Z,1.00
2024-03-13T05:32:44.789Z,1.57
2024-03-13T05:35:14.203Z,1.43
2024-03-13T05:37:42.304Z,1.80
2024-03-13T05:40:17.952Z,2.20
2024-03-13T05:42:46.379Z,2.10
2024-03-13T05:45:14.389Z,1.87
2024-03-13T05:47:42.953Z,1.07
2024-03-13T05:50:11.484Z,1.43
2024-03-13T05:52:39.655Z,1.70
2024-03-13T05:55:08.276Z,2.17
2024-03-13T05:57:37.719Z,5.87
2024-03-13T06:00:09.183Z,3.03
2024-03-13T06:02:39.610Z,2.93
2024-03-13T06:05:12.975Z,3.20
2024-03-13T06:07:41.130Z,3.90
2024-03-13T06:10:11.188Z,3.23
2024-03-13T06:12:39.194Z,4.80
2024-03-13T06:15:09.064Z,5.23
2024-03-13T06:17:37.291Z,3.20
2024-03-13T06:20:07.801Z,2.87
2024-03-13T06:22:37.064Z,2.70
2024-03-13T06:25:08.099Z,3.53
2024-03-13T06:27:36.209Z,4.57
2024-03-13T06:30:03.283Z,3.37
2024-03-13T06:32:31.477Z,8.73
2024-03-13T06:34:59.668Z,6.00
2024-03-13T06:37:28.427Z,6.70
2024-03-13T06:39:58.213Z,9.50
2024-03-13T06:42:26.686Z,10.43
2024-03-13T06:44:55.645Z,9.90
2024-03-13T06:47:23.984Z,7.47
2024-03-13T06:49:52.028Z,7.30
2024-03-13T06:52:20.063Z,5.40
2024-03-13T06:54:48.110Z,4.13
2024-03-13T06:57:16.065Z,4.60
2024-03-13T06:59:46.410Z,3.67
2024-03-13T07:02:15.500Z,5.23
2024-03-13T07:04:44.333Z,5.50
2024-03-13T07:07:12.503Z,6.10
2024-03-13T07:09:40.637Z,4.50
2024-03-13T07:12:08.985Z,3.67
2024-03-13T07:14:37.038Z,3.27
2024-03-13T07:17:05.019Z,4.67
2024-03-13T07:19:35.045Z,4.40
2024-03-13T07:22:03.237Z,5.53
2024-03-13T07:24:31.289Z,5.13
2024-03-13T07:26:59.965Z,7.80
2024-03-13T07:29:28.632Z,7.93
2024-03-13T07:31:57.476Z,6.80
2024-03-13T07:34:26.128Z,4.60
2024-03-13T07:36:56.049Z,3.90
2024-03-13T07:39:27.158Z,3.50
2024-03-13T07:41:55.258Z,7.00
2024-03-13T07:44:23.308Z,3.93
2024-03-13T07:46:52.717Z,6.10
2024-03-13T07:49:20.831Z,8.60
2024-03-13T07:51:48.948Z,4.43
2024-03-13T07:54:17.190Z,4.83
2024-03-13T07:56:45.524Z,5.30
2024-03-13T07:59:14.002Z,4.67
2024-03-13T08:01:43.071Z,18.73
2024-03-13T08:04:12.858Z,51.30
2024-03-13T09:07:42.494Z,9.93
2024-03-13T09:10:14.218Z,23.03
2024-03-13T09:12:43.123Z,2.00
2024-03-13T09:15:12.277Z,2.93
2024-03-13T09:17:41.276Z,2.37
2024-03-13T09:20:09.913Z,6.90
2024-03-13T09:22:38.261Z,5.73
2024-03-13T09:25:07.163Z,4.23
2024-03-13T09:27:35.201Z,4.30
2024-03-13T09:30:04.829Z,8.30
2024-03-13T09:32:33.474Z,23.20
2024-03-13T09:35:03.459Z,2.80
2024-03-13T09:37:32.889Z,11.07
2024-03-13T09:40:06.058Z,5.10
2024-03-13T09:42:34.449Z,7.10
2024-03-13T09:45:02.482Z,2.90
2024-03-13T09:47:30.817Z,4.47
2024-03-13T09:49:58.999Z,2.53
2024-03-13T09:52:27.130Z,2.70
2024-03-13T09:54:56.024Z,3.37
2024-03-13T09:57:24.864Z,4.33
2024-03-13T09:59:57.671Z,3.33
2024-03-13T10:02:26.261Z,9.13
2024-03-13T10:04:54.358Z,5.43
2024-03-13T10:07:23.017Z,5.03
2024-03-13T10:09:51.381Z,3.43
2024-03-13T10:12:22.076Z,5.40
2024-03-13T10:14:51.391Z,3.90
2024-03-13T10:17:20.064Z,8.20
2024-03-13T10:19:48.739Z,4.27
2024-03-13T10:22:18.292Z,7.17
2024-03-13T10:24:47.593Z,7.17
2024-03-13T10:27:16.341Z,4.50
2024-03-13T10:29:44.885Z,5.83
2024-03-13T10:32:12.936Z,7.33
2024-03-13T10:34:41.194Z,5.30
2024-03-13T10:37:13.953Z,4.27
2024-03-13T10:39:43.493Z,3.90
2024-03-13T10:42:12.169Z,3.53
2024-03-13T10:44:41.617Z,4.57
2024-03-13T10:47:10.405Z,4.50
2024-03-13T10:49:38.863Z,3.73
2024-03-13T10:52:13.152Z,6.77
2024-03-13T10:54:42.320Z,3.47
2024-03-13T10:57:17.767Z,4.13
2024-03-13T10:59:49.374Z,3.70
2024-03-13T11:02:17.817Z,6.50
2024-03-13T11:04:46.809Z,4.03
2024-03-13T11:07:16.959Z,4.13
2024-03-13T11:09:45.328Z,4.67
2024-03-13T11:12:20.330Z,2.90
2024-03-13T11:14:52.479Z,4.57
2024-03-13T11:17:21.688Z,4.07
2024-03-13T11:19:51.185Z,5.20
2024-03-13T11:22:20.125Z,9.10
2024-03-13T11:24:48.548Z,9.53
2024-03-13T11:27:18.589Z,7.83
2024-03-13T11:29:47.213Z,9.33
2024-03-13T11:32:17.294Z,4.77
2024-03-13T11:34:45.760Z,5.40
2024-03-13T11:37:13.867Z,3.80
2024-03-13T11:39:42.424Z,2.57
2024-03-13T11:42:14.386Z,2.10
2024-03-13T11:44:47.212Z,0.70
2024-03-13T11:47:17.815Z,0.70
2024-03-13T11:49:46.375Z,0.50
2024-03-13T11:52:16.675Z,0.97
2024-03-13T11:54:47.277Z,2.07
2024-03-13T11:57:16.730Z,0.47
2024-03-13T11:59:45.854Z,0.50
2024-03-13T12:02:41.294Z,0.10
2024-03-13T12:05:12.401Z,0.43
2024-03-13T12:07:42.557Z,0.20
2024-03-13T12:10:16.962Z,1.90
2024-03-13T12:12:45.404Z,0.13
2024-03-13T12:15:17.058Z,0.33
2024-03-13T12:17:46.253Z,0.23
2024-03-13T12:20:19.194Z,0.10
2024-03-13T12:22:47.654Z,0.93
2024-03-13T12:25:15.888Z,0.40
2024-03-13T12:27:47.686Z,0.20
2024-03-13T12:30:16.764Z,0.60
2024-03-13T12:32:46.809Z,0.53
2024-03-13T12:35:15.078Z,0.40
2024-03-13T12:37:43.137Z,0.33
2024-03-13T12:40:13.477Z,0.10
2024-03-13T12:42:42.891Z,0.60
2024-03-13T12:45:12.378Z,0.17
2024-03-13T12:47:42.123Z,1.63
2024-03-13T12:50:13.218Z,1.13
2024-03-13T12:52:41.763Z,0.20
2024-03-13T12:55:10.601Z,0.20
2024-03-13T12:57:39.185Z,1.30
2024-03-13T13:00:14.810Z,0.27
2024-03-13T13:02:46.468Z,1.07
2024-03-13T13:05:15.230Z,3.40
2024-03-13T13:07:51.080Z,2.60
2024-03-13T13:10:19.734Z,1.30
2024-03-13T13:12:48.274Z,1.03
2024-03-13T13:15:16.746Z,0.50
2024-03-13T13:17:45.457Z,2.17
2024-03-13T13:20:14.231Z,0.57
2024-03-13T13:22:42.848Z,0.40
2024-03-13T13:25:13.348Z,0.40
2024-03-13T13:27:44.861Z,1.53
2024-03-13T13:30:14.815Z,0.20
2024-03-13T13:32:43.079Z,0.43
2024-03-13T13:35:12.385Z,1.97
2024-03-13T13:37:40.659Z,3.23
2024-03-13T13:40:13.835Z,1.27
2024-03-13T13:42:42.620Z,0.77
2024-03-13T13:45:11.485Z,1.53
2024-03-13T13:47:43.328Z,0.70
2024-03-13T13:50:17.143Z,0.37
2024-03-13T13:52:46.162Z,2.07
2024-03-13T13:55:14.874Z,1.40
2024-03-13T13:57:50.341Z,3.57
2024-03-13T14:00:23.871Z,5.03
2024-03-13T14:02:54.260Z,5.50
2024-03-13T14:05:23.304Z,17.70
2024-03-13T14:07:55.151Z,7.03
2024-03-13T14:10:23.777Z,6.00
2024-03-13T14:12:52.763Z,10.87
2024-03-13T14:15:22.998Z,5.83
2024-03-13T14:17:52.607Z,3.50
2024-03-13T14:20:22.031Z,2.07
2024-03-13T14:22:55.522Z,15.40
2024-03-13T14:25:26.310Z,2.63
2024-03-13T14:27:56.169Z,5.23
2024-03-13T14:30:25.353Z,22.00
2024-03-13T14:32:54.206Z,5.57
2024-03-13T14:35:23.616Z,8.67
2024-03-13T14:37:51.971Z,10.40
2024-03-13T14:40:22.201Z,12.47
2024-03-13T14:42:50.808Z,3.70
2024-03-13T14:45:19.776Z,4.03
2024-03-13T14:47:48.509Z,7.53
2024-03-13T14:50:20.793Z,8.03
2024-03-13T14:52:59.468Z,3.57
2024-03-13T14:55:33.731Z,4.33
2024-03-13T14:58:02.729Z,2.50
2024-03-13T15:00:32.358Z,5.30
2024-03-13T15:03:01.389Z,2.30
2024-03-13T15:05:33.723Z,6.20
2024-03-13T15:08:05.481Z,4.40
2024-03-13T15:10:34.166Z,5.70
2024-03-13T15:13:02.532Z,4.97
2024-03-13T15:15:31.199Z,5.13
2024-03-13T15:17:59.673Z,10.47
2024-03-13T15:20:28.069Z,3.43
2024-03-13T15:22:56.342Z,5.03
2024-03-13T15:25:24.754Z,6.23
2024-03-13T15:27:53.160Z,5.90
2024-03-13T15:30:21.560Z,3.97
2024-03-13T15:32:50.132Z,27.20
2024-03-13T15:35:18.534Z,8.17
2024-03-13T15:37:47.436Z,4.43
2024-03-13T15:40:17.550Z,5.83
2024-03-13T15:42:48.084Z,4.10
2024-03-13T15:45:18.514Z,5.80
2024-03-13T15:47:47.918Z,3.90
2024-03-13T15:50:25.171Z,12.37
2024-03-13T15:53:01.435Z,7.37
2024-03-13T15:55:30.227Z,10.43
2024-03-13T15:57:58.546Z,10.43
2024-03-13T16:00:27.871Z,10.83
2024-03-13T16:02:56.024Z,8.13
2024-03-13T16:05:27.108Z,4.17
2024-03-13T16:07:56.416Z,8.93
2024-03-13T16:10:25.292Z,11.53
2024-03-13T16:12:53.440Z,9.00
2024-03-13T16:15:22.232Z,39.27
2024-03-13T16:17:51.205Z,20.30
2024-03-13T16:20:19.354Z,20.83
2024-03-13T16:22:48.358Z,14.77
2024-03-13T16:25:18.477Z,11.60
2024-03-13T16:27:47.416Z,8.67
2024-03-13T16:30:20.901Z,9.47
2024-03-13T16:32:50.171Z,4.50
2024-03-13T16:35:18.783Z,11.73
2024-03-13T16:37:47.394Z,34.93
2024-03-13T16:40:18.598Z,26.10
2024-03-13T16:42:47.099Z,17.97
2024-03-13T16:45:17.526Z,10.00
2024-03-13T16:47:46.164Z,9.47
2024-03-13T16:50:16.513Z,4.03
2024-03-13T16:52:45.193Z,5.37
2024-03-13T16:55:13.637Z,13.67
2024-03-13T16:57:43.748Z,11.63
2024-03-13T17:00:17.139Z,7.53
2024-03-13T17:02:47.348Z,13.70
2024-03-13T17:05:17.176Z,7.03
2024-03-13T17:07:46.584Z,8.77
2024-03-13T17:10:14.734Z,6.60
2024-03-13T17:12:42.989Z,9.23
2024-03-13T17:15:11.293Z,10.50
2024-03-13T17:17:38.474Z,12.23
2024-03-13T17:20:08.980Z,6.43
2024-03-13T17:22:37.340Z,4.13
2024-03-13T17:25:05.752Z,5.00
2024-03-13T17:27:34.452Z,5.20
2024-03-13T17:30:02.682Z,4.67
2024-03-13T17:32:31.210Z,6.03
2024-03-13T17:35:01.943Z,8.83
2024-03-13T17:37:30.663Z,4.63
2024-03-13T17:39:58.796Z,4.17
2024-03-13T17:42:27.080Z,5.77
2024-03-13T17:44:57.674Z,5.17
2024-03-13T17:47:25.990Z,7.47
2024-03-13T17:49:54.093Z,4.87
2024-03-13T17:52:22.668Z,5.57
2024-03-13T17:54:53.062Z,5.67
2024-03-13T17:57:21.561Z,3.87
2024-03-13T17:59:49.830Z,8.77
2024-03-13T18:02:19.847Z,6.47
2024-03-13T18:04:48.743Z,5.47
2024-03-13T18:07:17.053Z,7.23
2024-03-13T18:09:46.460Z,6.67
2024-03-13T18:12:14.904Z,4.83
2024-03-13T18:14:43.143Z,5.30
2024-03-13T18:17:11.156Z,9.33
2024-03-13T18:19:40.692Z,8.40
2024-03-13T18:22:09.064Z,8.33
2024-03-13T18:24:37.186Z,15.57
2024-03-13T18:27:05.544Z,14.80
2024-03-13T18:29:34.425Z,16.07
2024-03-13T18:32:04.892Z,16.23
2024-03-13T18:34:33.868Z,18.47
2024-03-13T18:37:01.924Z,16.87
2024-03-13T18:39:30.045Z,17.00
2024-03-13T18:42:01.436Z,12.13
2024-03-13T18:44:33.357Z,5.53
2024-03-13T18:47:07.401Z,6.47
2024-03-13T18:49:35.870Z,5.83
2024-03-13T18:52:03.923Z,5.60
2024-03-13T18:54:33.613Z,4.87
2024-03-13T18:57:01.701Z,8.03
2024-03-13T18:59:30.548Z,7.00
2024-03-13T19:01:59.912Z,6.67
2024-03-13T19:04:27.965Z,10.63
2024-03-13T19:06:56.622Z,13.03
2024-03-13T19:09:24.896Z,6.30
2024-03-13T19:11:53.141Z,7.77
2024-03-13T19:14:21.206Z,7.47
2024-03-13T19:16:55.635Z,6.80
2024-03-13T19:19:24.044Z,7.90
2024-03-13T19:21:52.613Z,6.87
2024-03-13T19:24:21.527Z,6.37
2024-03-13T19:26:49.783Z,9.60
2024-03-13T19:29:17.830Z,6.60
2024-03-13T19:31:51.764Z,11.43
2024-03-13T19:34:20.539Z,20.83
2024-03-13T19:36:48.542Z,9.27
2024-03-13T19:39:16.578Z,13.33
2024-03-13T19:41:44.727Z,18.50
2024-03-13T19:44:13.850Z,24.10
2024-03-13T19:46:41.851Z,19.37
2024-03-13T19:49:09.987Z,24.90
2024-03-13T19:51:38.048Z,29.83
2024-03-13T19:54:06.147Z,21.70
2024-03-13T19:56:34.164Z,21.03
2024-03-13T19:59:02.228Z,19.67
2024-03-13T20:01:32.246Z,17.93
2024-03-13T20:04:00.465Z,17.80
2024-03-13T20:06:28.543Z,15.73
2024-03-13T20:08:56.578Z,16.43
2024-03-13T20:11:24.674Z,17.07
2024-03-13T20:13:52.756Z,18.20
2024-03-13T20:16:21.417Z,17.33
2024-03-13T20:18:50.365Z,22.93
2024-03-13T20:21:19.321Z,20.70
2024-03-13T20:23:47.463Z,20.57
2024-03-13T20:26:15.529Z,22.80
2024-03-13T20:28:43.545Z,19.90
2024-03-13T20:31:11.540Z,24.13
2024-03-13T20:33:43.751Z,19.43
2024-03-13T20:36:11.911Z,15.90
2024-03-13T20:38:39.950Z,18.83
2024-03-13T20:41:09.425Z,22.50
2024-03-13T20:43:37.471Z,16.37
2024-03-13T20:46:06.116Z,17.27
2024-03-13T20:48:34.691Z,19.10
2024-03-13T20:51:02.772Z,15.20
2024-03-13T20:53:30.760Z,16.33
2024-03-13T20:56:00.324Z,15.00
2024-03-13T20:58:29.154Z,19.07
2024-03-13T21:00:57.362Z,15.47
2024-03-13T21:03:25.471Z,15.70
2024-03-13T21:05:53.784Z,18.30
2024-03-13T21:08:21.916Z,14.97
2024-03-13T21:10:49.976Z,15.70
2024-03-13T21:13:18.054Z,17.53
2024-03-13T21:15:53.920Z,14.60
2024-03-13T21:18:38.966Z,14.93
2024-03-13T21:21:07.706Z,22.70
2024-03-13T21:23:36.516Z,16.97
2024-03-13T21:26:08.051Z,17.33
2024-03-13T21:28:36.854Z,12.83
2024-03-13T21:31:06.040Z,17.63
2024-03-13T21:33:34.313Z,16.80
2024-03-13T21:36:02.424Z,16.90
2024-03-13T21:38:30.413Z,16.40
2024-03-13T21:41:00.152Z,18.73
2024-03-13T21:43:32.040Z,15.27
2024-03-13T21:46:00.778Z,20.20
2024-03-13T21:48:29.512Z,17.47
2024-03-13T21:50:57.671Z,17.93
2024-03-13T21:53:26.108Z,21.20
2024-03-13T21:55:54.298Z,17.80
2024-03-13T21:58:22.356Z,16.60
2024-03-13T22:00:50.446Z,16.47
2024-03-13T22:03:18.554Z,14.67
2024-03-13T22:05:46.548Z,20.70
2024-03-13T22:08:14.556Z,15.77
2024-03-13T22:10:42.794Z,18.77
2024-03-13T22:13:10.957Z,18.07
2024-03-13T22:15:39.447Z,15.00
2024-03-13T22:18:08.638Z,16.17
2024-03-13T22:20:36.709Z,13.13
2024-03-13T22:23:07.196Z,12.83
2024-03-13T22:25:37.730Z,13.60
2024-03-13T22:28:06.499Z,12.70
2024-03-13T22:30:35.002Z,16.07
2024-03-13T22:33:04.130Z,13.17
2024-03-13T22:35:32.526Z,12.33
2024-03-13T22:38:00.734Z,14.87
2024-03-13T22:40:29.156Z,13.93
2024-03-13T22:42:58.160Z,12.47
2024-03-13T22:45:27.461Z,12.73
2024-03-13T22:47:55.799Z,11.87
2024-03-13T22:50:25.151Z,14.03
2024-03-13T22:52:53.583Z,11.93
2024-03-13T22:55:23.092Z,11.83
2024-03-13T22:57:51.048Z,9.23
2024-03-13T23:00:38.425Z,13.70
2024-03-13T23:03:16.244Z,13.50
2024-03-13T23:05:44.262Z,15.50
2024-03-13T23:08:14.963Z,14.73
2024-03-13T23:10:44.093Z,13.00
2024-03-13T23:13:13.859Z,16.73
2024-03-13T23:15:43.440Z,15.37
2024-03-13T23:18:11.405Z,13.77
2024-03-13T23:20:39.788Z,15.23
2024-03-13T23:23:08.812Z,15.23
2024-03-13T23:25:37.897Z,12.97
2024-03-13T23:28:07.283Z,10.87
2024-03-13T23:30:36.401Z,9.10
2024-03-13T23:33:04.876Z,12.53
2024-03-13T23:35:33.362Z,12.53
2024-03-13T23:38:01.530Z,10.70
2024-03-13T23:40:29.540Z,11.93
2024-03-13T23:42:57.502Z,12.93
2024-03-13T23:45:27.615Z,10.73
2024-03-13T23:47:56.207Z,11.43
2024-03-13T23:50:26.084Z,9.47
2024-03-13T23:52:55.529Z,9.03
2024-03-13T23:55:26.372Z,10.53
2024-03-13T23:57:55.821Z,8.60
